sensor_id;sensor_type;location;lat;lon;timestamp;pressure;altitude;pressure_sealevel;temperature
75431;BMP280;64127;51.488;5.462;2024-01-11T00:00:04;102946.25;;;1.28
75431;BMP280;64127;51.488;5.462;2024-01-11T00:02:36;102952.34;;;1.28
75431;BMP280;64127;51.488;5.462;2024-01-11T00:05:09;102950.50;;;1.27
75431;BMP280;64127;51.488;5.462;2024-01-11T00:07:41;102948.44;;;1.32
75431;BMP280;64127;51.488;5.462;2024-01-11T00:10:13;102947.53;;;1.31
75431;BMP280;64127;51.488;5.462;2024-01-11T00:12:46;102943.28;;;1.32
75431;BMP280;64127;51.488;5.462;2024-01-11T00:15:18;102943.28;;;1.32
75431;BMP280;64127;51.488;5.462;2024-01-11T00:17:50;102942.34;;;1.31
75431;BMP280;64127;51.488;5.462;2024-01-11T00:20:22;102941.34;;;1.22
75431;BMP280;64127;51.488;5.462;2024-01-11T00:22:54;102945.00;;;1.24
75431;BMP280;64127;51.488;5.462;2024-01-11T00:25:26;102948.75;;;1.19
75431;BMP280;64127;51.488;5.462;2024-01-11T00:27:58;102951.47;;;1.21
75431;BMP280;64127;51.488;5.462;2024-01-11T00:30:30;102945.38;;;1.20
75431;BMP280;64127;51.488;5.462;2024-01-11T00:33:03;102952.06;;;1.18
75431;BMP280;64127;51.488;5.462;2024-01-11T00:35:35;102947.63;;;1.17
75431;BMP280;64127;51.488;5.462;2024-01-11T00:38:07;102943.63;;;1.12
75431;BMP280;64127;51.488;5.462;2024-01-11T00:40:39;102949.53;;;1.11
75431;BMP280;64127;51.488;5.462;2024-01-11T00:43:11;102942.38;;;1.09
75431;BMP280;64127;51.488;5.462;2024-01-11T00:45:45;102945.81;;;1.16
75431;BMP280;64127;51.488;5.462;2024-01-11T00:48:17;102945.44;;;1.13
75431;BMP280;64127;51.488;5.462;2024-01-11T00:50:49;102943.28;;;1.09
75431;BMP280;64127;51.488;5.462;2024-01-11T00:53:21;102944.38;;;1.11
75431;BMP280;64127;51.488;5.462;2024-01-11T00:55:53;102941.63;;;1.10
75431;BMP280;64127;51.488;5.462;2024-01-11T00:58:26;102943.28;;;1.09
75431;BMP280;64127;51.488;5.462;2024-01-11T01:00:58;102958.44;;;1.06
75431;BMP280;64127;51.488;5.462;2024-01-11T01:03:30;102950.31;;;1.03
75431;BMP280;64127;51.488;5.462;2024-01-11T01:06:03;102951.63;;;0.99
75431;BMP280;64127;51.488;5.462;2024-01-11T01:08:35;102954.78;;;0.97
75431;BMP280;64127;51.488;5.462;2024-01-11T01:11:07;102957.34;;;0.97
75431;BMP280;64127;51.488;5.462;2024-01-11T01:13:39;102961.59;;;0.96
75431;BMP280;64127;51.488;5.462;2024-01-11T01:16:11;102958.28;;;0.97
75431;BMP280;64127;51.488;5.462;2024-01-11T01:18:43;102957.75;;;0.93
75431;BMP280;64127;51.488;5.462;2024-01-11T01:21:15;102955.91;;;0.99
75431;BMP280;64127;51.488;5.462;2024-01-11T01:23:47;102965.84;;;0.96
75431;BMP280;64127;51.488;5.462;2024-01-11T01:26:19;102969.19;;;0.95
75431;BMP280;64127;51.488;5.462;2024-01-11T01:28:52;102974.34;;;0.95
75431;BMP280;64127;51.488;5.462;2024-01-11T01:31:24;102959.59;;;0.94
75431;BMP280;64127;51.488;5.462;2024-01-11T01:33:56;102977.66;;;0.94
75431;BMP280;64127;51.488;5.462;2024-01-11T01:36:28;102977.31;;;0.91
75431;BMP280;64127;51.488;5.462;2024-01-11T01:39:00;102968.84;;;0.92
75431;BMP280;64127;51.488;5.462;2024-01-11T01:41:32;102976.97;;;0.88
75431;BMP280;64127;51.488;5.462;2024-01-11T01:44:04;102981.94;;;0.86
75431;BMP280;64127;51.488;5.462;2024-01-11T01:46:37;102985.66;;;0.81
75431;BMP280;64127;51.488;5.462;2024-01-11T01:49:11;102993.22;;;0.80
75431;BMP280;64127;51.488;5.462;2024-01-11T01:51:44;102997.66;;;0.74
75431;BMP280;64127;51.488;5.462;2024-01-11T01:54:18;102996.41;;;0.70
75431;BMP280;64127;51.488;5.462;2024-01-11T01:56:52;103007.44;;;0.69
75431;BMP280;64127;51.488;5.462;2024-01-11T01:59:27;103009.47;;;0.72
75431;BMP280;64127;51.488;5.462;2024-01-11T02:02:00;103010.38;;;0.72
75431;BMP280;64127;51.488;5.462;2024-01-11T02:04:32;103001.78;;;0.65
75431;BMP280;64127;51.488;5.462;2024-01-11T02:07:06;103004.31;;;0.72
75431;BMP280;64127;51.488;5.462;2024-01-11T02:09:39;103007.44;;;0.69
75431;BMP280;64127;51.488;5.462;2024-01-11T02:12:12;103007.63;;;0.71
75431;BMP280;64127;51.488;5.462;2024-01-11T02:14:44;102996.59;;;0.72
75431;BMP280;64127;51.488;5.462;2024-01-11T02:17:17;102990.31;;;0.70
75431;BMP280;64127;51.488;5.462;2024-01-11T02:19:49;102985.88;;;0.69
75431;BMP280;64127;51.488;5.462;2024-01-11T02:22:28;102988.47;;;0.69
75431;BMP280;64127;51.488;5.462;2024-01-11T02:25:01;102982.41;;;0.68
75431;BMP280;64127;51.488;5.462;2024-01-11T02:27:49;102984.22;;;0.69
75431;BMP280;64127;51.488;5.462;2024-01-11T02:30:21;102991.03;;;0.69
75431;BMP280;64127;51.488;5.462;2024-01-11T02:32:54;102983.72;;;0.65
75431;BMP280;64127;51.488;5.462;2024-01-11T02:35:28;102986.66;;;0.68
75431;BMP280;64127;51.488;5.462;2024-01-11T02:38:01;102992.19;;;0.64
75431;BMP280;64127;51.488;5.462;2024-01-11T02:40:34;103003.25;;;0.63
75431;BMP280;64127;51.488;5.462;2024-01-11T02:43:10;102992.03;;;0.55
75431;BMP280;64127;51.488;5.462;2024-01-11T02:45:42;102995.16;;;0.60
75431;BMP280;64127;51.488;5.462;2024-01-11T02:48:14;102995.53;;;0.56
75431;BMP280;64127;51.488;5.462;2024-01-11T02:50:50;102997.94;;;0.54
75431;BMP280;64127;51.488;5.462;2024-01-11T02:53:23;103000.34;;;0.52
75431;BMP280;64127;51.488;5.462;2024-01-11T02:55:55;103002.19;;;0.54
75431;BMP280;64127;51.488;5.462;2024-01-11T02:58:27;102997.03;;;0.54
75431;BMP280;64127;51.488;5.462;2024-01-11T03:00:59;102997.75;;;0.52
75431;BMP280;64127;51.488;5.462;2024-01-11T03:03:31;102999.06;;;0.49
75431;BMP280;64127;51.488;5.462;2024-01-11T03:06:04;103001.13;;;0.44
75431;BMP280;64127;51.488;5.462;2024-01-11T03:08:36;102992.63;;;0.45
75431;BMP280;64127;51.488;5.462;2024-01-11T03:11:08;103006.28;;;0.44
75431;BMP280;64127;51.488;5.462;2024-01-11T03:13:40;102997.06;;;0.46
75431;BMP280;64127;51.488;5.462;2024-01-11T03:16:12;102996.50;;;0.42
75431;BMP280;64127;51.488;5.462;2024-01-11T03:18:44;102996.00;;;0.37
75431;BMP280;64127;51.488;5.462;2024-01-11T03:21:17;103001.53;;;0.33
75431;BMP280;64127;51.488;5.462;2024-01-11T03:23:49;103000.03;;;0.35
75431;BMP280;64127;51.488;5.462;2024-01-11T03:26:22;103004.25;;;0.35
75431;BMP280;64127;51.488;5.462;2024-01-11T03:28:54;103000.41;;;0.31
75431;BMP280;64127;51.488;5.462;2024-01-11T03:31:26;102989.00;;;0.29
75431;BMP280;64127;51.488;5.462;2024-01-11T03:33:58;102999.13;;;0.28
75431;BMP280;64127;51.488;5.462;2024-01-11T03:36:30;102990.50;;;0.27
75431;BMP280;64127;51.488;5.462;2024-01-11T03:39:02;102991.81;;;0.24
75431;BMP280;64127;51.488;5.462;2024-01-11T03:41:34;102996.56;;;0.28
75431;BMP280;64127;51.488;5.462;2024-01-11T03:44:06;103008.56;;;0.27
75431;BMP280;64127;51.488;5.462;2024-01-11T03:46:39;102991.97;;;0.25
75431;BMP280;64127;51.488;5.462;2024-01-11T03:49:11;102986.47;;;0.22
75431;BMP280;64127;51.488;5.462;2024-01-11T03:51:43;102989.97;;;0.23
75431;BMP280;64127;51.488;5.462;2024-01-11T03:54:16;102989.03;;;0.22
75431;BMP280;64127;51.488;5.462;2024-01-11T03:56:48;102984.44;;;0.20
75431;BMP280;64127;51.488;5.462;2024-01-11T03:59:20;102999.72;;;0.18
75431;BMP280;64127;51.488;5.462;2024-01-11T04:01:52;103003.78;;;0.16
75431;BMP280;64127;51.488;5.462;2024-01-11T04:04:24;103007.81;;;0.14
75431;BMP280;64127;51.488;5.462;2024-01-11T04:06:56;103000.50;;;0.10
75431;BMP280;64127;51.488;5.462;2024-01-11T04:09:28;103000.09;;;0.07
75431;BMP280;64127;51.488;5.462;2024-01-11T04:12:01;102987.63;;;0.03
75431;BMP280;64127;51.488;5.462;2024-01-11T04:14:39;102997.00;;;0.03
75431;BMP280;64127;51.488;5.462;2024-01-11T04:17:12;103004.91;;;0.04
75431;BMP280;64127;51.488;5.462;2024-01-11T04:19:44;103019.44;;;0.04
75431;BMP280;64127;51.488;5.462;2024-01-11T04:22:16;103020.91;;;0.02
75431;BMP280;64127;51.488;5.462;2024-01-11T04:24:48;103035.81;;;0.04
75431;BMP280;64127;51.488;5.462;2024-01-11T04:27:20;103033.22;;;0.04
75431;BMP280;64127;51.488;5.462;2024-01-11T04:29:52;103038.78;;;0.00
75431;BMP280;64127;51.488;5.462;2024-01-11T04:32:24;103032.88;;;-0.06
75431;BMP280;64127;51.488;5.462;2024-01-11T04:34:56;103037.09;;;-0.07
75431;BMP280;64127;51.488;5.462;2024-01-11T04:37:28;103041.38;;;-0.07
75431;BMP280;64127;51.488;5.462;2024-01-11T04:40:01;103049.81;;;-0.08
75431;BMP280;64127;51.488;5.462;2024-01-11T04:42:33;103048.91;;;-0.09
75431;BMP280;64127;51.488;5.462;2024-01-11T04:45:05;103047.97;;;-0.09
75431;BMP280;64127;51.488;5.462;2024-01-11T04:47:37;103054.63;;;-0.11
75431;BMP280;64127;51.488;5.462;2024-01-11T04:50:10;103037.31;;;-0.12
75431;BMP280;64127;51.488;5.462;2024-01-11T04:52:42;103049.63;;;-0.10
75431;BMP280;64127;51.488;5.462;2024-01-11T04:55:14;103038.97;;;-0.13
75431;BMP280;64127;51.488;5.462;2024-01-11T04:57:46;103028.66;;;-0.20
75431;BMP280;64127;51.488;5.462;2024-01-11T05:00:18;103045.97;;;-0.19
75431;BMP280;64127;51.488;5.462;2024-01-11T05:02:50;103040.81;;;-0.19
75431;BMP280;64127;51.488;5.462;2024-01-11T05:05:22;103038.44;;;-0.17
75431;BMP280;64127;51.488;5.462;2024-01-11T05:07:54;103052.41;;;-0.15
75431;BMP280;64127;51.488;5.462;2024-01-11T05:10:26;103042.47;;;-0.19
75431;BMP280;64127;51.488;5.462;2024-01-11T05:12:58;103045.97;;;-0.19
75431;BMP280;64127;51.488;5.462;2024-01-11T05:15:30;103052.03;;;-0.18
75431;BMP280;64127;51.488;5.462;2024-01-11T05:18:02;103049.25;;;-0.20
75431;BMP280;64127;51.488;5.462;2024-01-11T05:20:34;103052.59;;;-0.21
75431;BMP280;64127;51.488;5.462;2024-01-11T05:23:07;103047.81;;;-0.25
75431;BMP280;64127;51.488;5.462;2024-01-11T05:25:39;103052.03;;;-0.18
75431;BMP280;64127;51.488;5.462;2024-01-11T05:28:11;103065.28;;;-0.22
75431;BMP280;64127;51.488;5.462;2024-01-11T05:30:43;103063.25;;;-0.25
75431;BMP280;64127;51.488;5.462;2024-01-11T05:33:15;103072.28;;;-0.28
75431;BMP280;64127;51.488;5.462;2024-01-11T05:35:47;103071.50;;;-0.27
75431;BMP280;64127;51.488;5.462;2024-01-11T05:38:19;103077.22;;;-0.30
75431;BMP280;64127;51.488;5.462;2024-01-11T05:40:51;103091.75;;;-0.30
75431;BMP280;64127;51.488;5.462;2024-01-11T05:43:23;103090.66;;;-0.32
75431;BMP280;64127;51.488;5.462;2024-01-11T05:45:55;103110.16;;;-0.34
75431;BMP280;64127;51.488;5.462;2024-01-11T05:48:28;103114.38;;;-0.35
75431;BMP280;64127;51.488;5.462;2024-01-11T05:51:00;103109.59;;;-0.32
75431;BMP280;64127;51.488;5.462;2024-01-11T05:53:32;103094.72;;;-0.34
75431;BMP280;64127;51.488;5.462;2024-01-11T05:56:08;103082.34;;;-0.37
75431;BMP280;64127;51.488;5.462;2024-01-11T05:58:41;103078.31;;;-0.42
75431;BMP280;64127;51.488;5.462;2024-01-11T06:01:14;103082.72;;;-0.41
75431;BMP280;64127;51.488;5.462;2024-01-11T06:03:46;103089.72;;;-0.40
75431;BMP280;64127;51.488;5.462;2024-01-11T06:06:19;103093.41;;;-0.38
75431;BMP280;64127;51.488;5.462;2024-01-11T06:08:51;103101.31;;;-0.36
75431;BMP280;64127;51.488;5.462;2024-01-11T06:11:23;103105.34;;;-0.38
75431;BMP280;64127;51.488;5.462;2024-01-11T06:13:55;103115.66;;;-0.38
75431;BMP280;64127;51.488;5.462;2024-01-11T06:16:27;103109.94;;;-0.43
75431;BMP280;64127;51.488;5.462;2024-01-11T06:18:59;103134.75;;;-0.43
75431;BMP280;64127;51.488;5.462;2024-01-11T06:21:31;103129.25;;;-0.46
75431;BMP280;64127;51.488;5.462;2024-01-11T06:24:04;103125.56;;;-0.48
75431;BMP280;64127;51.488;5.462;2024-01-11T06:26:36;103114.16;;;-0.51
75431;BMP280;64127;51.488;5.462;2024-01-11T06:29:08;103111.19;;;-0.54
75431;BMP280;64127;51.488;5.462;2024-01-11T06:31:40;103116.19;;;-0.55
75431;BMP280;64127;51.488;5.462;2024-01-11T06:34:12;103121.34;;;-0.55
75431;BMP280;64127;51.488;5.462;2024-01-11T06:36:44;103123.69;;;-0.57
75431;BMP280;64127;51.488;5.462;2024-01-11T06:39:16;103112.84;;;-0.54
75431;BMP280;64127;51.488;5.462;2024-01-11T06:41:48;103114.50;;;-0.55
75431;BMP280;64127;51.488;5.462;2024-01-11T06:44:20;103114.88;;;-0.59
75431;BMP280;64127;51.488;5.462;2024-01-11T06:46:53;103107.88;;;-0.67
75431;BMP280;64127;51.488;5.462;2024-01-11T06:49:25;103122.03;;;-0.63
75431;BMP280;64127;51.488;5.462;2024-01-11T06:51:57;103123.13;;;-0.61
75431;BMP280;64127;51.488;5.462;2024-01-11T06:54:29;103124.06;;;-0.61
75431;BMP280;64127;51.488;5.462;2024-01-11T06:57:02;103130.13;;;-0.60
75431;BMP280;64127;51.488;5.462;2024-01-11T06:59:34;103131.78;;;-0.61
75431;BMP280;64127;51.488;5.462;2024-01-11T07:02:06;103114.09;;;-0.72
75431;BMP280;64127;51.488;5.462;2024-01-11T07:04:43;103125.16;;;-0.66
75431;BMP280;64127;51.488;5.462;2024-01-11T07:07:15;103139.13;;;-0.64
75431;BMP280;64127;51.488;5.462;2024-01-11T07:09:47;103128.66;;;-0.65
75431;BMP280;64127;51.488;5.462;2024-01-11T07:12:20;103130.81;;;-0.68
75431;BMP280;64127;51.488;5.462;2024-01-11T07:14:52;103142.78;;;-0.69
75431;BMP280;64127;51.488;5.462;2024-01-11T07:17:24;103146.22;;;-0.75
75431;BMP280;64127;51.488;5.462;2024-01-11T07:19:57;103150.84;;;-0.73
75431;BMP280;64127;51.488;5.462;2024-01-11T07:22:29;103150.66;;;-0.74
75431;BMP280;64127;51.488;5.462;2024-01-11T07:25:01;103131.66;;;-0.89
75431;BMP280;64127;51.488;5.462;2024-01-11T07:27:33;103161.50;;;-0.77
75431;BMP280;64127;51.488;5.462;2024-01-11T07:30:06;103147.00;;;-0.76
75431;BMP280;64127;51.488;5.462;2024-01-11T07:32:38;103141.47;;;-0.79
75431;BMP280;64127;51.488;5.462;2024-01-11T07:35:10;103155.25;;;-0.79
75431;BMP280;64127;51.488;5.462;2024-01-11T07:37:49;103172.50;;;-0.78
75431;BMP280;64127;51.488;5.462;2024-01-11T07:40:21;103149.69;;;-0.82
75431;BMP280;64127;51.488;5.462;2024-01-11T07:42:53;103159.28;;;-0.81
75431;BMP280;64127;51.488;5.462;2024-01-11T07:45:25;103151.19;;;-0.84
75431;BMP280;64127;51.488;5.462;2024-01-11T07:47:57;103142.53;;;-0.84
75431;BMP280;64127;51.488;5.462;2024-01-11T07:50:30;103150.47;;;-0.83
75431;BMP280;64127;51.488;5.462;2024-01-11T07:53:03;103147.53;;;-0.79
75431;BMP280;64127;51.488;5.462;2024-01-11T07:55:35;103151.38;;;-0.82
75431;BMP280;64127;51.488;5.462;2024-01-11T07:58:07;103161.50;;;-0.77
75431;BMP280;64127;51.488;5.462;2024-01-11T08:00:39;103154.88;;;-0.75
75431;BMP280;64127;51.488;5.462;2024-01-11T08:03:11;103136.44;;;-0.92
75431;BMP280;64127;51.488;5.462;2024-01-11T08:05:43;103171.25;;;-0.74
75431;BMP280;64127;51.488;5.462;2024-01-11T08:08:17;103161.66;;;-0.75
75431;BMP280;64127;51.488;5.462;2024-01-11T08:10:49;103136.47;;;-0.85
75431;BMP280;64127;51.488;5.462;2024-01-11T08:13:21;103161.31;;;-0.71
75431;BMP280;64127;51.488;5.462;2024-01-11T08:15:53;103157.47;;;-0.68
75431;BMP280;64127;51.488;5.462;2024-01-11T08:18:25;103151.41;;;-0.68
75431;BMP280;64127;51.488;5.462;2024-01-11T08:20:58;103147.19;;;-0.68
75431;BMP280;64127;51.488;5.462;2024-01-11T08:23:30;103135.97;;;-0.68
75431;BMP280;64127;51.488;5.462;2024-01-11T08:26:03;103143.88;;;-0.67
75431;BMP280;64127;51.488;5.462;2024-01-11T08:28:35;103133.97;;;-0.64
75431;BMP280;64127;51.488;5.462;2024-01-11T08:31:08;103130.47;;;-0.64
75431;BMP280;64127;51.488;5.462;2024-01-11T08:33:40;103134.34;;;-0.61
75431;BMP280;64127;51.488;5.462;2024-01-11T08:36:13;103138.41;;;-0.56
75431;BMP280;64127;51.488;5.462;2024-01-11T08:38:45;103140.22;;;-0.55
75431;BMP280;64127;51.488;5.462;2024-01-11T08:41:18;103149.09;;;-0.45
75431;BMP280;64127;51.488;5.462;2024-01-11T08:43:50;103155.00;;;-0.39
75431;BMP280;64127;51.488;5.462;2024-01-11T08:46:27;103149.13;;;-0.38
75431;BMP280;64127;51.488;5.462;2024-01-11T08:49:01;103134.75;;;-0.43
75431;BMP280;64127;51.488;5.462;2024-01-11T08:51:35;103146.91;;;-0.35
75431;BMP280;64127;51.488;5.462;2024-01-11T08:54:07;103145.63;;;-0.32
75431;BMP280;64127;51.488;5.462;2024-01-11T08:56:41;103146.94;;;-0.21
75431;BMP280;64127;51.488;5.462;2024-01-11T08:59:13;103162.81;;;0.03
75431;BMP280;64127;51.488;5.462;2024-01-11T09:01:45;103168.13;;;0.26
75431;BMP280;64127;51.488;5.462;2024-01-11T09:04:32;103168.66;;;0.51
75431;BMP280;64127;51.488;5.462;2024-01-11T09:07:05;103176.00;;;0.70
75431;BMP280;64127;51.488;5.462;2024-01-11T09:09:37;103168.22;;;0.84
75431;BMP280;64127;51.488;5.462;2024-01-11T09:12:21;103173.00;;;0.95
75431;BMP280;64127;51.488;5.462;2024-01-11T09:14:53;103178.63;;;1.14
75431;BMP280;64127;51.488;5.462;2024-01-11T09:17:26;103159.59;;;1.27
75431;BMP280;64127;51.488;5.462;2024-01-11T09:19:58;103177.19;;;1.52
75431;BMP280;64127;51.488;5.462;2024-01-11T09:22:31;103183.69;;;1.79
75431;BMP280;64127;51.488;5.462;2024-01-11T09:25:03;103171.19;;;1.97
75431;BMP280;64127;51.488;5.462;2024-01-11T09:27:35;103179.34;;;2.16
75431;BMP280;64127;51.488;5.462;2024-01-11T09:30:08;103184.81;;;2.26
75431;BMP280;64127;51.488;5.462;2024-01-11T09:32:40;103173.34;;;2.47
75431;BMP280;64127;51.488;5.462;2024-01-11T09:35:13;103173.34;;;2.70
75431;BMP280;64127;51.488;5.462;2024-01-11T09:37:47;103188.41;;;2.81
75431;BMP280;64127;51.488;5.462;2024-01-11T09:40:21;103197.16;;;2.90
75431;BMP280;64127;51.488;5.462;2024-01-11T09:42:54;103197.75;;;3.03
75431;BMP280;64127;51.488;5.462;2024-01-11T09:45:26;103204.63;;;3.18
75431;BMP280;64127;51.488;5.462;2024-01-11T09:47:58;103205.94;;;3.30
75431;BMP280;64127;51.488;5.462;2024-01-11T09:50:32;103205.94;;;3.46
75431;BMP280;64127;51.488;5.462;2024-01-11T09:53:06;103207.00;;;3.79
75431;BMP280;64127;51.488;5.462;2024-01-11T09:55:39;103210.28;;;4.18
75431;BMP280;64127;51.488;5.462;2024-01-11T09:58:12;103203.28;;;4.50
75431;BMP280;64127;51.488;5.462;2024-01-11T10:00:46;103200.81;;;4.76
75431;BMP280;64127;51.488;5.462;2024-01-11T10:03:18;103208.94;;;4.96
75431;BMP280;64127;51.488;5.462;2024-01-11T10:05:56;103218.56;;;4.97
75431;BMP280;64127;51.488;5.462;2024-01-11T10:08:29;103213.75;;;5.17
75431;BMP280;64127;51.488;5.462;2024-01-11T10:11:05;103214.84;;;5.36
75431;BMP280;64127;51.488;5.462;2024-01-11T10:13:37;103216.19;;;5.58
75431;BMP280;64127;51.488;5.462;2024-01-11T10:16:12;103204.88;;;5.84
75431;BMP280;64127;51.488;5.462;2024-01-11T10:18:47;103206.56;;;6.09
75431;BMP280;64127;51.488;5.462;2024-01-11T10:21:19;103215.13;;;6.08
75431;BMP280;64127;51.488;5.462;2024-01-11T10:23:51;103216.53;;;6.04
75431;BMP280;64127;51.488;5.462;2024-01-11T10:26:24;103214.97;;;6.06
75431;BMP280;64127;51.488;5.462;2024-01-11T10:29:00;103203.31;;;6.20
75431;BMP280;64127;51.488;5.462;2024-01-11T10:31:33;103191.31;;;6.39
75431;BMP280;64127;51.488;5.462;2024-01-11T10:34:06;103210.81;;;6.61
75431;BMP280;64127;51.488;5.462;2024-01-11T10:36:39;103206.53;;;6.71
75431;BMP280;64127;51.488;5.462;2024-01-11T10:39:15;103216.84;;;6.88
75431;BMP280;64127;51.488;5.462;2024-01-11T10:41:53;103207.28;;;6.97
75431;BMP280;64127;51.488;5.462;2024-01-11T10:44:34;103227.56;;;7.18
75431;BMP280;64127;51.488;5.462;2024-01-11T10:47:09;103223.94;;;7.35
75431;BMP280;64127;51.488;5.462;2024-01-11T10:49:44;103221.66;;;7.48
75431;BMP280;64127;51.488;5.462;2024-01-11T10:52:21;103216.41;;;7.56
75431;BMP280;64127;51.488;5.462;2024-01-11T10:54:57;103212.84;;;7.75
75431;BMP280;64127;51.488;5.462;2024-01-11T10:57:32;103214.53;;;7.93
75431;BMP280;64127;51.488;5.462;2024-01-11T11:00:05;103209.38;;;8.03
75431;BMP280;64127;51.488;5.462;2024-01-11T11:02:39;103208.06;;;7.98
75431;BMP280;64127;51.488;5.462;2024-01-11T11:05:14;103202.84;;;7.98
75431;BMP280;64127;51.488;5.462;2024-01-11T11:07:49;103203.66;;;8.07
75431;BMP280;64127;51.488;5.462;2024-01-11T11:10:22;103202.75;;;8.35
75431;BMP280;64127;51.488;5.462;2024-01-11T11:12:54;103205.97;;;8.61
75431;BMP280;64127;51.488;5.462;2024-01-11T11:15:33;103216.22;;;8.79
75431;BMP280;64127;51.488;5.462;2024-01-11T11:18:06;103213.59;;;8.79
75431;BMP280;64127;51.488;5.462;2024-01-11T11:20:40;103212.00;;;8.71
75431;BMP280;64127;51.488;5.462;2024-01-11T11:23:18;103202.13;;;8.87
75431;BMP280;64127;51.488;5.462;2024-01-11T11:25:54;103202.13;;;8.87
75431;BMP280;64127;51.488;5.462;2024-01-11T11:28:31;103225.41;;;9.04
75431;BMP280;64127;51.488;5.462;2024-01-11T11:31:06;103227.63;;;9.30
75431;BMP280;64127;51.488;5.462;2024-01-11T11:33:38;103209.31;;;9.50
75431;BMP280;64127;51.488;5.462;2024-01-11T11:36:12;103215.31;;;9.69
75431;BMP280;64127;51.488;5.462;2024-01-11T11:38:45;103210.16;;;9.81
75431;BMP280;64127;51.488;5.462;2024-01-11T11:41:18;103213.69;;;9.91
75431;BMP280;64127;51.488;5.462;2024-01-11T11:43:51;103216.94;;;9.99
75431;BMP280;64127;51.488;5.462;2024-01-11T11:46:23;103215.00;;;9.96
75431;BMP280;64127;51.488;5.462;2024-01-11T11:48:55;103218.09;;;10.02
75431;BMP280;64127;51.488;5.462;2024-01-11T11:51:28;103213.38;;;10.08
75431;BMP280;64127;51.488;5.462;2024-01-11T11:54:02;103218.50;;;9.97
75431;BMP280;64127;51.488;5.462;2024-01-11T11:56:35;103220.34;;;9.98
75431;BMP280;64127;51.488;5.462;2024-01-11T11:59:08;103220.88;;;10.36
75431;BMP280;64127;51.488;5.462;2024-01-11T12:01:40;103212.69;;;10.53
75431;BMP280;64127;51.488;5.462;2024-01-11T12:04:13;103213.56;;;10.32
75431;BMP280;64127;51.488;5.462;2024-01-11T12:06:46;103214.53;;;10.22
75431;BMP280;64127;51.488;5.462;2024-01-11T12:09:19;103209.03;;;10.09
75431;BMP280;64127;51.488;5.462;2024-01-11T12:11:53;103202.50;;;10.14
75431;BMP280;64127;51.488;5.462;2024-01-11T12:14:37;103204.34;;;10.05
75431;BMP280;64127;51.488;5.462;2024-01-11T12:17:09;103194.50;;;10.66
75431;BMP280;64127;51.488;5.462;2024-01-11T12:19:41;103189.16;;;10.01
75431;BMP280;64127;51.488;5.462;2024-01-11T12:22:13;103191.75;;;9.69
75431;BMP280;64127;51.488;5.462;2024-01-11T12:24:46;103173.81;;;9.53
75431;BMP280;64127;51.488;5.462;2024-01-11T12:27:19;103183.66;;;9.46
75431;BMP280;64127;51.488;5.462;2024-01-11T12:29:52;103176.16;;;9.71
75431;BMP280;64127;51.488;5.462;2024-01-11T12:32:30;103184.22;;;9.84
75431;BMP280;64127;51.488;5.462;2024-01-11T12:35:03;103173.19;;;9.98
75431;BMP280;64127;51.488;5.462;2024-01-11T12:37:35;103179.47;;;10.00
75431;BMP280;64127;51.488;5.462;2024-01-11T12:40:12;103164.13;;;10.04
75431;BMP280;64127;51.488;5.462;2024-01-11T12:42:44;103173.13;;;10.18
75431;BMP280;64127;51.488;5.462;2024-01-11T12:45:17;103166.94;;;10.49
75431;BMP280;64127;51.488;5.462;2024-01-11T12:47:49;103174.19;;;10.63
75431;BMP280;64127;51.488;5.462;2024-01-11T12:50:22;103179.31;;;10.62
75431;BMP280;64127;51.488;5.462;2024-01-11T12:53:12;103176.28;;;10.67
75431;BMP280;64127;51.488;5.462;2024-01-11T12:56:06;103176.44;;;10.81
75431;BMP280;64127;51.488;5.462;2024-01-11T12:58:43;103171.31;;;11.15
75431;BMP280;64127;51.488;5.462;2024-01-11T13:01:15;103179.06;;;10.81
75431;BMP280;64127;51.488;5.462;2024-01-11T13:03:48;103165.31;;;10.95
75431;BMP280;64127;51.488;5.462;2024-01-11T13:06:20;103173.03;;;11.15
75431;BMP280;64127;51.488;5.462;2024-01-11T13:08:52;103183.78;;;10.85
75431;BMP280;64127;51.488;5.462;2024-01-11T13:11:25;103181.84;;;10.60
75431;BMP280;64127;51.488;5.462;2024-01-11T13:13:57;103164.38;;;10.39
75431;BMP280;64127;51.488;5.462;2024-01-11T13:16:32;103175.88;;;10.41
75431;BMP280;64127;51.488;5.462;2024-01-11T13:19:05;103180.47;;;10.65
75431;BMP280;64127;51.488;5.462;2024-01-11T13:21:54;103186.56;;;10.98
75431;BMP280;64127;51.488;5.462;2024-01-11T13:24:26;103189.78;;;11.05
75431;BMP280;64127;51.488;5.462;2024-01-11T13:26:59;103196.78;;;10.61
75431;BMP280;64127;51.488;5.462;2024-01-11T13:29:31;103182.75;;;9.97
75431;BMP280;64127;51.488;5.462;2024-01-11T13:32:03;103180.72;;;9.73
75431;BMP280;64127;51.488;5.462;2024-01-11T13:34:37;103189.00;;;9.67
75431;BMP280;64127;51.488;5.462;2024-01-11T13:37:10;103180.81;;;9.85
75431;BMP280;64127;51.488;5.462;2024-01-11T13:39:42;103189.25;;;9.60
75431;BMP280;64127;51.488;5.462;2024-01-11T13:42:14;103186.13;;;9.64
75431;BMP280;64127;51.488;5.462;2024-01-11T13:44:46;103185.69;;;9.80
75431;BMP280;64127;51.488;5.462;2024-01-11T13:47:18;103190.75;;;9.99
75431;BMP280;64127;51.488;5.462;2024-01-11T13:49:50;103188.50;;;10.35
75431;BMP280;64127;51.488;5.462;2024-01-11T13:52:22;103199.03;;;10.57
75431;BMP280;64127;51.488;5.462;2024-01-11T13:54:54;103186.16;;;10.82
75431;BMP280;64127;51.488;5.462;2024-01-11T13:57:26;103191.63;;;10.63
75431;BMP280;64127;51.488;5.462;2024-01-11T13:59:58;103200.59;;;9.91
75431;BMP280;64127;51.488;5.462;2024-01-11T14:02:30;103203.31;;;9.31
75431;BMP280;64127;51.488;5.462;2024-01-11T14:05:04;103209.66;;;8.74
75431;BMP280;64127;51.488;5.462;2024-01-11T14:07:39;103211.41;;;8.26
75431;BMP280;64127;51.488;5.462;2024-01-11T14:10:13;103227.19;;;7.70
75431;BMP280;64127;51.488;5.462;2024-01-11T14:12:45;103223.69;;;7.23
75431;BMP280;64127;51.488;5.462;2024-01-11T14:15:17;103219.28;;;6.95
75431;BMP280;64127;51.488;5.462;2024-01-11T14:17:50;103223.66;;;6.77
75431;BMP280;64127;51.488;5.462;2024-01-11T14:20:22;103212.69;;;6.62
75431;BMP280;64127;51.488;5.462;2024-01-11T14:22:55;103212.28;;;6.49
75431;BMP280;64127;51.488;5.462;2024-01-11T14:25:27;103187.09;;;6.23
75431;BMP280;64127;51.488;5.462;2024-01-11T14:28:01;103201.63;;;6.21
75431;BMP280;64127;51.488;5.462;2024-01-11T14:30:33;103204.91;;;6.09
75431;BMP280;64127;51.488;5.462;2024-01-11T14:33:05;103202.47;;;6.02
75431;BMP280;64127;51.488;5.462;2024-01-11T14:35:37;103201.25;;;5.99